createdAt,value
2018-12-18T00:02:19.216Z,57.48
2018-12-18T00:04:47.023Z,62.83
2018-12-18T00:07:14.603Z,61.25
2018-12-18T00:09:42.219Z,60.20
2018-12-18T00:12:09.878Z,55.65
2018-12-18T00:14:39.219Z,66.02
2018-12-18T00:17:07.278Z,70.90
2018-12-18T00:19:35.050Z,70.37
2018-12-18T00:22:02.486Z,63.87
2018-12-18T00:24:30.125Z,61.63
2018-12-18T00:26:58.062Z,68.37
2018-12-18T00:29:26.396Z,59.70
2018-12-18T00:31:54.373Z,60.28
2018-12-18T00:34:25.160Z,65.00
2018-12-18T00:36:52.868Z,73.12
2018-12-18T00:39:21.322Z,70.95
2018-12-18T00:41:49.330Z,59.90
2018-12-18T00:44:16.710Z,66.50
2018-12-18T00:46:44.653Z,64.37
2018-12-18T00:49:13.044Z,63.78
2018-12-18T00:51:40.694Z,64.70
2018-12-18T00:54:08.115Z,56.53
2018-12-18T00:56:35.841Z,49.30
2018-12-18T00:59:04.135Z,46.42
2018-12-18T01:01:31.570Z,53.28
2018-12-18T01:03:59.525Z,49.48
2018-12-18T01:06:27.118Z,52.35
2018-12-18T01:08:55.380Z,49.83
2018-12-18T01:11:23.231Z,47.33
2018-12-18T01:13:51.119Z,45.30
2018-12-18T01:16:18.909Z,46.20
2018-12-18T01:18:46.750Z,45.92
2018-12-18T01:21:14.590Z,45.90
2018-12-18T01:23:42.262Z,47.88
2018-12-18T01:26:09.817Z,46.48
2018-12-18T01:28:37.485Z,45.35
2018-12-18T01:31:05.530Z,46.53
2018-12-18T01:33:33.017Z,46.02
2018-12-18T01:36:01.179Z,47.67
2018-12-18T01:38:29.147Z,47.23
2018-12-18T01:40:57.535Z,45.50
2018-12-18T01:43:25.643Z,45.70
2018-12-18T01:45:53.885Z,41.65
2018-12-18T01:48:21.553Z,41.50
2018-12-18T01:50:49.065Z,37.78
2018-12-18T01:53:17.007Z,40.60
2018-12-18T01:55:45.091Z,42.48
2018-12-18T01:58:12.802Z,39.40
2018-12-18T02:00:40.498Z,41.20
2018-12-18T02:03:08.646Z,40.75
2018-12-18T02:05:36.956Z,43.47
2018-12-18T02:08:05.219Z,45.52
2018-12-18T02:10:33.223Z,45.03
2018-12-18T02:13:00.625Z,43.17
2018-12-18T02:15:28.938Z,44.13
2018-12-18T02:17:56.973Z,44.45
2018-12-18T02:20:24.746Z,46.83
2018-12-18T02:22:52.363Z,49.70
2018-12-18T02:25:20.062Z,51.05
2018-12-18T02:27:48.263Z,55.78
2018-12-18T02:30:16.231Z,67.62
2018-12-18T02:32:43.782Z,60.50
2018-12-18T02:35:11.633Z,60.58
2018-12-18T02:37:39.547Z,53.17
2018-12-18T02:40:07.274Z,54.50
2018-12-18T02:42:35.433Z,55.35
2018-12-18T02:45:04.121Z,55.17
2018-12-18T02:47:32.650Z,54.85
2018-12-18T02:50:00.290Z,56.30
2018-12-18T02:52:28.009Z,58.73
2018-12-18T02:54:56.000Z,63.17
2018-12-18T02:57:24.461Z,67.10
2018-12-18T02:59:52.163Z,65.05
2018-12-18T03:02:19.778Z,61.20
2018-12-18T03:04:47.337Z,58.92
2018-12-18T03:07:15.493Z,57.88
2018-12-18T03:09:43.379Z,57.97
2018-12-18T03:12:11.657Z,59.42
2018-12-18T03:14:39.458Z,64.17
2018-12-18T03:17:07.232Z,67.10
2018-12-18T03:19:34.883Z,62.60
2018-12-18T03:22:02.382Z,63.78
2018-12-18T03:24:30.442Z,66.47
2018-12-18T03:26:58.416Z,61.13
2018-12-18T03:29:26.240Z,62.97
2018-12-18T03:31:58.208Z,64.80
2018-12-18T03:34:28.466Z,69.85
2018-12-18T03:36:56.402Z,70.28
2018-12-18T03:39:23.816Z,75.40
2018-12-18T03:41:51.637Z,79.20
2018-12-18T03:44:19.598Z,68.90
2018-12-18T03:46:47.361Z,70.90
2018-12-18T03:49:15.194Z,65.63
2018-12-18T03:51:43.207Z,62.35
2018-12-18T03:54:10.811Z,66.97
2018-12-18T03:56:38.523Z,63.73
2018-12-18T03:59:06.512Z,58.45
2018-12-18T04:01:34.691Z,61.75
2018-12-18T04:04:02.341Z,68.80
2018-12-18T04:06:30.397Z,57.37
2018-12-18T04:08:57.885Z,56.43
2018-12-18T04:11:25.823Z,56.98
2018-12-18T04:13:53.906Z,57.73
2018-12-18T04:16:21.358Z,51.42
2018-12-18T04:18:49.177Z,52.30
2018-12-18T04:21:17.220Z,59.25
2018-12-18T04:23:44.618Z,53.98
2018-12-18T04:26:12.539Z,67.50
2018-12-18T04:28:40.506Z,57.70
2018-12-18T04:31:08.562Z,57.85
2018-12-18T04:33:36.623Z,66.07
2018-12-18T04:36:04.395Z,54.95
2018-12-18T04:38:32.274Z,54.50
2018-12-18T04:41:00.310Z,58.48
2018-12-18T04:43:28.008Z,53.85
2018-12-18T04:45:55.973Z,49.67
2018-12-18T04:48:23.847Z,51.75
2018-12-18T04:50:51.498Z,52.75
2018-12-18T04:53:20.461Z,58.92
2018-12-18T04:55:48.078Z,54.88
2018-12-18T04:58:16.397Z,57.47
2018-12-18T05:00:44.205Z,54.38
2018-12-18T05:03:12.171Z,52.27
2018-12-18T05:05:39.570Z,60.20
2018-12-18T05:08:07.192Z,55.58
2018-12-18T05:10:35.370Z,53.68
2018-12-18T05:13:03.557Z,58.33
2018-12-18T05:15:31.114Z,55.90
2018-12-18T05:17:59.521Z,59.57
2018-12-18T05:20:27.659Z,57.90
2018-12-18T05:22:55.734Z,60.40
2018-12-18T05:25:23.934Z,60.95
2018-12-18T05:27:52.503Z,59.03
2018-12-18T05:30:20.350Z,62.08
2018-12-18T05:32:48.332Z,63.50
2018-12-18T05:35:15.927Z,63.17
2018-12-18T05:37:44.319Z,62.17
2018-12-18T05:40:13.018Z,62.65
2018-12-18T05:42:40.751Z,59.98
2018-12-18T05:45:08.786Z,59.65
2018-12-18T05:47:36.309Z,59.70
2018-12-18T05:50:04.178Z,62.60
2018-12-18T05:52:32.389Z,65.35
2018-12-18T05:55:00.075Z,67.42
2018-12-18T05:57:27.482Z,64.80
2018-12-18T06:01:00.305Z,64.80
2018-12-18T06:03:28.065Z,64.72
2018-12-18T06:05:55.931Z,64.30
2018-12-18T06:08:23.409Z,59.42
2018-12-18T06:10:51.139Z,71.70
2018-12-18T06:13:18.646Z,71.90
2018-12-18T06:15:47.403Z,66.72
2018-12-18T06:18:15.276Z,71.25
2018-12-18T06:20:42.946Z,73.83
2018-12-18T06:23:10.451Z,65.85
2018-12-18T06:25:38.150Z,67.55
2018-12-18T06:28:06.226Z,68.22
2018-12-18T06:30:34.257Z,67.70
2018-12-18T06:33:02.592Z,64.63
2018-12-18T06:35:30.887Z,69.30
2018-12-18T06:37:58.402Z,69.42
2018-12-18T06:40:26.740Z,74.80
2018-12-18T06:42:55.532Z,67.25
2018-12-18T06:45:23.234Z,71.25
2018-12-18T06:47:50.714Z,72.87
2018-12-18T06:50:19.313Z,73.40
2018-12-18T06:52:47.036Z,68.47
2018-12-18T06:55:14.987Z,75.80
2018-12-18T06:57:43.301Z,70.52
2018-12-18T07:00:11.666Z,78.72
2018-12-18T07:02:39.477Z,75.08
2018-12-18T07:05:07.087Z,77.62
2018-12-18T07:07:34.484Z,77.10
2018-12-18T07:10:02.794Z,71.42
2018-12-18T07:12:30.710Z,70.03
2018-12-18T07:14:59.058Z,73.10
2018-12-18T07:17:26.738Z,74.47
2018-12-18T07:19:55.104Z,75.85
2018-12-18T07:22:22.852Z,70.78
2018-12-18T07:24:50.703Z,63.08
2018-12-18T07:27:18.314Z,67.92
2018-12-18T07:29:45.849Z,69.00
2018-12-18T07:32:13.749Z,71.62
2018-12-18T07:34:42.657Z,66.30
2018-12-18T07:37:10.568Z,70.35
2018-12-18T07:39:38.926Z,67.27
2018-12-18T07:42:06.555Z,70.50
2018-12-18T07:44:34.814Z,69.10
2018-12-18T07:47:02.446Z,67.10
2018-12-18T07:49:30.354Z,70.10
2018-12-18T07:51:58.726Z,60.98
2018-12-18T07:54:28.243Z,69.82
2018-12-18T07:56:56.206Z,73.87
2018-12-18T07:59:23.879Z,67.62
2018-12-18T08:01:51.402Z,81.75
2018-12-18T08:04:21.112Z,68.95
2018-12-18T08:06:48.941Z,69.22
2018-12-18T08:09:17.807Z,73.95
2018-12-18T08:11:45.774Z,70.30
2018-12-18T08:14:13.274Z,69.90
2018-12-18T08:16:40.698Z,65.65
2018-12-18T08:19:08.155Z,73.52
2018-12-18T08:21:35.632Z,71.02
2018-12-18T08:24:03.407Z,72.20
2018-12-18T08:26:31.074Z,73.78
2018-12-18T08:28:58.820Z,74.65
2018-12-18T08:31:26.254Z,72.30
2018-12-18T08:33:53.982Z,72.92
2018-12-18T08:36:21.490Z,68.20
2018-12-18T08:38:48.986Z,65.60
2018-12-18T08:41:16.527Z,61.55
2018-12-18T08:43:44.270Z,65.75
2018-12-18T08:46:12.108Z,61.10
2018-12-18T08:48:40.028Z,59.70
2018-12-18T08:51:07.750Z,55.08
2018-12-18T08:53:35.928Z,51.23
2018-12-18T08:56:04.254Z,48.97
2018-12-18T08:58:32.067Z,46.92
2018-12-18T09:00:59.836Z,47.35
2018-12-18T09:03:27.457Z,48.15
2018-12-18T09:05:55.131Z,48.60
2018-12-18T09:08:22.581Z,49.60
2018-12-18T09:10:50.374Z,52.48
2018-12-18T09:13:18.239Z,51.10
2018-12-18T09:15:51.530Z,52.45
2018-12-18T09:18:19.201Z,50.60
2018-12-18T09:20:46.790Z,48.93
2018-12-18T09:23:14.497Z,51.25
2018-12-18T09:25:42.403Z,49.70
2018-12-18T09:28:10.016Z,57.55
2018-12-18T09:30:42.549Z,56.73
2018-12-18T09:33:08.214Z,51.58
2018-12-18T09:35:36.611Z,51.45
2018-12-18T09:38:09.989Z,48.80
2018-12-18T09:40:43.387Z,48.38
2018-12-18T09:43:17.315Z,49.20
2018-12-18T09:45:44.882Z,50.28
2018-12-18T09:48:12.349Z,46.50
2018-12-18T09:50:39.939Z,48.65
2018-12-18T09:53:07.778Z,50.25
2018-12-18T09:55:36.120Z,44.75
2018-12-18T09:58:06.380Z,50.00
2018-12-18T10:00:34.398Z,49.58
2018-12-18T10:03:01.877Z,50.80
2018-12-18T10:05:30.379Z,49.67
2018-12-18T10:07:58.865Z,47.98
2018-12-18T10:10:27.799Z,46.55
2018-12-18T10:12:56.566Z,53.47
2018-12-18T10:15:24.647Z,44.88
2018-12-18T10:17:52.498Z,41.13
2018-12-18T10:20:20.713Z,44.27
2018-12-18T10:22:48.240Z,43.78
2018-12-18T10:25:15.987Z,47.93
2018-12-18T10:27:43.593Z,45.37
2018-12-18T10:30:11.527Z,44.73
2018-12-18T10:32:39.573Z,44.83
2018-12-18T10:35:07.131Z,41.77
2018-12-18T10:37:35.126Z,40.17
2018-12-18T10:40:02.742Z,39.88
2018-12-18T10:42:30.555Z,41.70
2018-12-18T10:44:58.929Z,39.48
2018-12-18T10:47:27.312Z,43.13
2018-12-18T10:49:54.996Z,44.80
2018-12-18T10:52:23.146Z,40.88
2018-12-18T10:54:52.474Z,39.43
2018-12-18T10:57:20.784Z,43.42
2018-12-18T10:59:48.406Z,44.60
2018-12-18T11:02:16.525Z,40.10
2018-12-18T11:04:44.111Z,42.48
2018-12-18T11:07:11.710Z,42.88
2018-12-18T11:09:39.989Z,40.63
2018-12-18T11:12:08.185Z,39.13
2018-12-18T11:14:35.622Z,40.85
2018-12-18T11:17:03.523Z,39.08
2018-12-18T11:19:31.185Z,38.30
2018-12-18T11:21:59.051Z,40.73
2018-12-18T11:24:27.183Z,41.30
2018-12-18T11:26:54.712Z,41.23
2018-12-18T11:29:22.730Z,40.15
2018-12-18T11:31:50.668Z,44.48
2018-12-18T11:34:19.051Z,46.15
2018-12-18T11:36:46.501Z,42.03
2018-12-18T11:39:14.772Z,49.75
2018-12-18T11:41:42.963Z,44.88
2018-12-18T11:44:10.920Z,43.48
2018-12-18T11:46:38.507Z,41.83
2018-12-18T11:49:06.138Z,41.77
2018-12-18T11:51:33.911Z,39.95
2018-12-18T11:54:01.967Z,39.83
2018-12-18T11:56:29.401Z,35.60
2018-12-18T11:58:56.806Z,39.65
2018-12-18T12:01:24.786Z,39.95
2018-12-18T12:03:52.736Z,41.85
2018-12-18T12:06:23.217Z,44.33
2018-12-18T12:08:50.618Z,40.70
2018-12-18T12:11:18.783Z,40.20
2018-12-18T12:13:46.817Z,35.90
2018-12-18T12:16:14.462Z,37.03
2018-12-18T12:18:42.063Z,38.40
2018-12-18T12:21:09.521Z,41.68
2018-12-18T12:23:37.113Z,39.67
2018-12-18T12:26:09.998Z,36.05
2018-12-18T12:28:37.484Z,38.25
2018-12-18T12:31:05.004Z,38.30
2018-12-18T12:33:32.734Z,36.70
2018-12-18T12:36:00.411Z,36.55
2018-12-18T12:38:28.067Z,40.85
2018-12-18T12:40:56.065Z,39.17
2018-12-18T12:43:23.669Z,41.07
2018-12-18T12:45:51.098Z,42.08
2018-12-18T12:48:19.466Z,40.80
2018-12-18T12:50:47.191Z,41.77
2018-12-18T12:53:14.845Z,40.53
2018-12-18T12:55:43.060Z,41.05
2018-12-18T12:58:10.777Z,45.75
2018-12-18T13:00:39.416Z,45.58
2018-12-18T13:03:07.077Z,49.77
2018-12-18T13:05:36.020Z,43.80
2018-12-18T13:08:03.728Z,43.45
2018-12-18T13:10:31.329Z,42.13
2018-12-18T13:12:58.880Z,43.23
2018-12-18T13:15:26.716Z,51.53
2018-12-18T13:17:54.888Z,49.13
2018-12-18T13:20:22.653Z,53.48
2018-12-18T13:22:50.112Z,48.25
2018-12-18T13:25:17.989Z,44.88
2018-12-18T13:27:45.774Z,48.65
2018-12-18T13:30:13.933Z,43.50
2018-12-18T13:32:41.604Z,47.40
2018-12-18T13:35:08.984Z,49.48
2018-12-18T13:37:36.999Z,51.35
2018-12-18T13:40:05.055Z,49.00
2018-12-18T13:42:32.675Z,88.95
2018-12-18T13:45:00.677Z,51.60
2018-12-18T13:47:28.281Z,52.00
2018-12-18T13:49:55.978Z,55.20
2018-12-18T13:52:23.627Z,55.85
2018-12-18T13:54:51.155Z,47.80
2018-12-18T13:57:19.149Z,53.52
2018-12-18T13:59:47.481Z,51.70
2018-12-18T14:02:14.999Z,51.98
2018-12-18T14:04:42.844Z,47.83
2018-12-18T14:07:10.857Z,49.27
2018-12-18T14:09:38.543Z,61.28
2018-12-18T14:12:06.219Z,55.97
2018-12-18T14:14:34.305Z,56.58
2018-12-18T14:17:02.465Z,57.83
2018-12-18T14:19:30.154Z,59.10
2018-12-18T14:21:58.387Z,53.83
2018-12-18T14:24:28.983Z,58.45
2018-12-18T14:27:04.520Z,52.73
2018-12-18T14:29:39.292Z,53.98
2018-12-18T14:32:12.806Z,48.30
2018-12-18T14:34:48.513Z,47.10
2018-12-18T14:37:26.069Z,51.90
2018-12-18T14:39:57.289Z,49.98
2018-12-18T14:42:31.427Z,53.75
2018-12-18T14:45:05.946Z,51.37
2018-12-18T14:47:41.760Z,49.73
2018-12-18T14:50:15.751Z,46.00
2018-12-18T14:52:51.561Z,50.70
2018-12-18T14:55:25.750Z,43.70
2018-12-18T14:58:00.318Z,45.10
2018-12-18T15:00:34.782Z,48.10
2018-12-18T15:03:14.234Z,45.50
2018-12-18T15:05:48.912Z,45.85
2018-12-18T15:08:25.915Z,44.85
2018-12-18T15:11:03.202Z,42.62
2018-12-18T15:13:42.674Z,44.05
2018-12-18T15:16:17.099Z,39.85
2018-12-18T15:18:53.088Z,42.88
2018-12-18T15:21:26.210Z,39.98
2018-12-18T15:23:59.618Z,41.05
2018-12-18T15:26:32.800Z,40.33
2018-12-18T15:29:13.399Z,38.67
2018-12-18T15:31:47.489Z,38.10
2018-12-18T15:34:24.209Z,39.10
2018-12-18T15:36:55.524Z,37.90
2018-12-18T15:39:30.634Z,35.52
2018-12-18T15:42:03.392Z,32.78
2018-12-18T15:44:37.997Z,37.33
2018-12-18T15:47:12.974Z,33.28
2018-12-18T15:49:44.273Z,31.52
2018-12-18T15:52:26.740Z,33.55
2018-12-18T15:55:05.834Z,30.70
2018-12-18T15:57:40.586Z,33.78
2018-12-18T16:00:13.703Z,33.20
2018-12-18T16:02:45.970Z,38.92
2018-12-18T16:05:21.877Z,34.13
2018-12-18T16:07:59.209Z,34.65
2018-12-18T16:10:34.611Z,34.75
2018-12-18T16:13:10.237Z,31.40
2018-12-18T16:15:38.344Z,34.00
2018-12-18T16:18:05.899Z,35.88
2018-12-18T16:20:34.356Z,34.25
2018-12-18T16:23:02.067Z,33.65
2018-12-18T16:25:29.888Z,34.10
2018-12-18T16:27:57.879Z,34.08
2018-12-18T16:30:25.539Z,34.75
2018-12-18T16:32:53.020Z,34.03
2018-12-18T16:35:20.525Z,33.08
2018-12-18T16:37:47.958Z,31.87
2018-12-18T16:40:16.294Z,34.25
2018-12-18T16:42:44.363Z,34.23
2018-12-18T16:45:12.335Z,33.50
2018-12-18T16:47:39.891Z,32.30
2018-12-18T16:50:07.462Z,30.25
2018-12-18T16:52:35.536Z,37.17
2018-12-18T16:55:03.257Z,33.55
2018-12-18T16:57:30.761Z,36.13
2018-12-18T16:59:59.044Z,33.02
2018-12-18T17:02:26.996Z,33.78
2018-12-18T17:04:54.487Z,31.42
2018-12-18T17:07:21.988Z,34.40
2018-12-18T17:09:49.844Z,35.98
2018-12-18T17:12:17.643Z,30.45
2018-12-18T17:14:45.169Z,32.35
2018-12-18T17:17:12.850Z,31.77
2018-12-18T17:19:41.744Z,32.88
2018-12-18T17:22:09.139Z,32.33
2018-12-18T17:24:36.757Z,29.67
2018-12-18T17:27:04.279Z,32.67
2018-12-18T17:29:32.668Z,29.65
2018-12-18T17:32:01.301Z,26.77
2018-12-18T17:34:29.132Z,28.25
2018-12-18T17:36:56.656Z,27.37
2018-12-18T17:39:24.452Z,28.05
2018-12-18T17:41:52.256Z,31.30
2018-12-18T17:44:20.123Z,31.82
2018-12-18T17:46:47.772Z,31.27
2018-12-18T17:49:15.179Z,29.12
2018-12-18T17:51:42.580Z,28.77
2018-12-18T17:54:10.286Z,30.73
2018-12-18T17:56:38.544Z,31.30
2018-12-18T17:59:06.117Z,28.70
2018-12-18T18:01:33.849Z,30.65
2018-12-18T18:04:01.453Z,31.17
2018-12-18T18:06:29.049Z,32.35
2018-12-18T18:08:56.572Z,31.75
2018-12-18T18:11:24.422Z,31.93
2018-12-18T18:13:51.996Z,33.33
2018-12-18T18:16:19.927Z,32.58
2018-12-18T18:18:47.464Z,34.38
2018-12-18T18:21:15.471Z,31.12
2018-12-18T18:23:43.359Z,31.87
2018-12-18T18:26:12.349Z,32.23
2018-12-18T18:28:40.735Z,30.48
2018-12-18T18:31:08.192Z,30.85
2018-12-18T18:33:35.944Z,33.40
2018-12-18T18:36:04.465Z,33.48
2018-12-18T18:38:32.076Z,31.68
2018-12-18T18:41:00.567Z,29.27
2018-12-18T18:43:28.155Z,34.83
2018-12-18T18:45:56.264Z,34.18
2018-12-18T18:48:23.729Z,33.28
2018-12-18T18:50:51.180Z,33.78
2018-12-18T18:53:19.185Z,32.80
2018-12-18T18:55:46.903Z,32.50
2018-12-18T18:58:14.595Z,34.35
2018-12-18T19:00:42.108Z,32.70
2018-12-18T19:03:09.888Z,46.05
2018-12-18T19:05:37.353Z,30.80
2018-12-18T19:08:04.905Z,36.08
2018-12-18T19:10:32.468Z,30.32
2018-12-18T19:13:00.004Z,30.17
2018-12-18T19:15:27.624Z,30.48
2018-12-18T19:17:55.401Z,33.23
2018-12-18T19:20:23.266Z,32.25
2018-12-18T19:22:50.679Z,36.13
2018-12-18T19:25:18.421Z,31.53
2018-12-18T19:27:46.111Z,31.77
2018-12-18T19:30:13.868Z,33.83
2018-12-18T19:32:41.512Z,32.03
2018-12-18T19:35:08.967Z,32.38
2018-12-18T19:37:36.791Z,32.60
2018-12-18T19:40:04.571Z,30.40
2018-12-18T19:42:32.220Z,33.70
2018-12-18T19:44:59.648Z,34.73
2018-12-18T19:47:27.109Z,36.35
2018-12-18T19:49:54.593Z,32.60
2018-12-18T19:52:22.015Z,31.77
2018-12-18T19:54:49.462Z,31.25
2018-12-18T19:57:17.188Z,31.65
2018-12-18T19:59:44.629Z,33.90
2018-12-18T20:02:12.015Z,35.83
2018-12-18T20:04:39.756Z,33.15
2018-12-18T20:07:07.323Z,36.03
2018-12-18T20:09:35.312Z,35.43
2018-12-18T20:12:03.054Z,35.35
2018-12-18T20:14:30.790Z,33.88
2018-12-18T20:16:58.829Z,34.63
2018-12-18T20:19:27.480Z,35.95
2018-12-18T20:21:55.050Z,36.25
2018-12-18T20:24:22.967Z,33.40
2018-12-18T20:26:50.656Z,33.00
2018-12-18T20:29:18.538Z,33.00
2018-12-18T20:31:46.017Z,35.73
2018-12-18T20:34:13.741Z,33.63
2018-12-18T20:36:41.187Z,34.98
2018-12-18T20:39:09.362Z,34.90
2018-12-18T20:41:37.363Z,33.98
2018-12-18T20:44:05.320Z,35.98
2018-12-18T20:46:34.492Z,32.30
2018-12-18T20:49:02.322Z,33.33
2018-12-18T20:51:30.369Z,37.08
2018-12-18T20:53:58.463Z,35.50
2018-12-18T20:56:26.266Z,31.57
2018-12-18T20:58:54.585Z,35.05
2018-12-18T21:01:23.194Z,38.50
2018-12-18T21:03:51.140Z,32.10
2018-12-18T21:06:19.002Z,40.40
2018-12-18T21:08:46.757Z,38.25
2018-12-18T21:11:14.531Z,36.30
2018-12-18T21:13:42.437Z,37.00
2018-12-18T21:16:10.469Z,37.70
2018-12-18T21:18:38.515Z,38.17
2018-12-18T21:21:06.410Z,40.30
2018-12-18T21:23:34.743Z,39.17
2018-12-18T21:26:02.927Z,36.65
2018-12-18T21:28:31.440Z,37.63
2018-12-18T21:30:58.982Z,36.00
2018-12-18T21:33:26.378Z,40.95
2018-12-18T21:35:54.791Z,35.90
2018-12-18T21:38:30.037Z,37.03
2018-12-18T21:40:53.602Z,36.85
2018-12-18T21:43:21.662Z,36.58
2018-12-18T21:45:49.618Z,36.42
2018-12-18T21:48:17.165Z,36.68
2018-12-18T21:50:45.047Z,38.23
2018-12-18T21:53:12.597Z,35.58
2018-12-18T21:55:40.437Z,36.70
2018-12-18T21:58:09.674Z,39.58
2018-12-18T22:00:37.412Z,38.23
2018-12-18T22:03:06.874Z,40.08
2018-12-18T22:05:34.890Z,34.48
2018-12-18T22:08:03.114Z,39.15
2018-12-18T22:10:31.549Z,33.30
2018-12-18T22:12:59.831Z,36.93
2018-12-18T22:15:27.553Z,34.85
2018-12-18T22:17:55.921Z,33.95
2018-12-18T22:20:24.069Z,33.42
2018-12-18T22:22:51.925Z,34.47
2018-12-18T22:25:19.551Z,35.08
2018-12-18T22:27:48.084Z,34.95
2018-12-18T22:30:15.579Z,35.57
2018-12-18T22:32:43.329Z,36.35
2018-12-18T22:35:11.028Z,33.85
2018-12-18T22:37:38.780Z,34.80
2018-12-18T22:40:06.213Z,29.10
2018-12-18T22:42:34.120Z,35.13
2018-12-18T22:45:01.520Z,36.03
2018-12-18T22:47:29.003Z,32.63
2018-12-18T22:49:56.476Z,31.30
2018-12-18T22:52:24.459Z,32.05
2018-12-18T22:54:52.118Z,29.65
2018-12-18T22:57:20.672Z,29.27
2018-12-18T22:59:49.651Z,32.20
2018-12-18T23:02:18.293Z,28.70
2018-12-18T23:04:46.248Z,30.52
2018-12-18T23:07:14.126Z,30.02
2018-12-18T23:09:42.294Z,28.57
2018-12-18T23:12:10.067Z,27.80
2018-12-18T23:14:38.447Z,29.92
2018-12-18T23:17:06.090Z,29.27
2018-12-18T23:19:33.970Z,29.90
2018-12-18T23:22:02.119Z,32.38
2018-12-18T23:24:29.873Z,31.90
2018-12-18T23:26:58.002Z,30.37
2018-12-18T23:29:25.819Z,28.83
2018-12-18T23:31:53.519Z,26.95
2018-12-18T23:34:21.515Z,30.62
2018-12-18T23:36:49.587Z,30.90
2018-12-18T23:39:17.294Z,32.93
2018-12-18T23:41:45.463Z,33.35
2018-12-18T23:44:13.885Z,30.00
2018-12-18T23:46:41.474Z,31.10
2018-12-18T23:49:09.924Z,32.50
2018-12-18T23:51:37.640Z,29.57
2018-12-18T23:54:05.723Z,28.60
2018-12-18T23:56:33.299Z,31.42
2018-12-18T23:59:01.030Z,32.85
